< VanCam Weather - WU Station History
^^
Station Historical Data
 
Daily Summary for April 20, 2018 Units:  English    Metric   Both
« Previous Day
Next Day »
Daily Weekly Monthly Yearly Custom
  Current: High: Low: Average:
Temperature: 65.0 °F 66.9 °F 34.2 °F 49.1 °F
Dew Point: 40.7 °F 44.5 °F 32.9 °F 38.4 °F
Humidity: 41% 96% 36% 71%
Wind Speed: 1.2mph 8.1mph 0.0mph 2mph
Wind Gust: 1.2mph 8.1mph - -
WindSouth - - SSE
Pressure: 30.16 in 30.28 in 30.16 in -
Precipitation: 0.01 in      
Historical Graphs
 
 
Tabular Data for April 20, 2018
Time Temperature Dew Point Pressure Wind Wind Speed Wind Gust Humidity Rainfall Rate (Hourly) solar Conditions
00:01 41.5 °F 37.0 °F 30.26 in WNW 2.3 mph 2.3 mph 84% 0.00 in WeatherDisplay:10.37 W/m2 CLR
00:06 41.2 °F 36.7 °F 30.26 in Calm     84% 0.00 in WeatherDisplay:10.37 W/m2 CLR
00:11 41.0 °F 36.8 °F 30.26 in Calm   0.2 mph 85% 0.00 in WeatherDisplay:10.37 W/m2 CLR
00:16 40.8 °F 36.9 °F 30.26 in WNW 2.3 mph 2.3 mph 86% 0.00 in WeatherDisplay:10.37 W/m2 CLR
00:21 40.6 °F 36.4 °F 30.26 in NNE 2.3 mph 2.3 mph 85% 0.00 in WeatherDisplay:10.37 W/m2 CLR
00:26 40.3 °F 36.4 °F 30.26 in NNE 2.3 mph 2.3 mph 86% 0.00 in WeatherDisplay:10.37 W/m2 CLR
00:31 40.1 °F 36.5 °F 30.26 in Calm     87% 0.00 in WeatherDisplay:10.37 W/m2 CLR
00:36 40.0 °F 36.4 °F 30.26 in NNE 2.3 mph 2.3 mph 87% 0.00 in WeatherDisplay:10.37 W/m2 CLR
00:41 39.7 °F 36.1 °F 30.26 in NNE 3.5 mph 3.5 mph 87% 0.00 in WeatherDisplay:10.37 W/m2 CLR
00:46 39.5 °F 36.2 °F 30.27 in NNE 2.3 mph 2.3 mph 88% 0.00 in WeatherDisplay:10.37 W/m2 CLR
00:51 39.5 °F 36.5 °F 30.27 in NNE 1.2 mph 1.2 mph 89% 0.00 in WeatherDisplay:10.37 W/m2 CLR
00:56 39.5 °F 36.5 °F 30.27 in Calm     89% 0.00 in WeatherDisplay:10.37 W/m2 CLR
01:01 39.5 °F 36.8 °F 30.27 in Calm     90% 0.00 in WeatherDisplay:10.37 W/m2 CLR
01:06 39.7 °F 37.0 °F 30.27 in NNE 1.2 mph 1.2 mph 90% 0.00 in WeatherDisplay:10.37 W/m2 CLR
01:11 39.6 °F 36.9 °F 30.27 in Calm     90% 0.00 in WeatherDisplay:10.37 W/m2 CLR
01:16 39.6 °F 36.9 °F 30.27 in Calm     90% 0.00 in WeatherDisplay:10.37 W/m2 CLR
01:21 39.4 °F 36.7 °F 30.27 in Calm     90% 0.00 in WeatherDisplay:10.37 W/m2 CLR
01:26 39.3 °F 36.6 °F 30.27 in Calm     90% 0.00 in WeatherDisplay:10.37 W/m2 CLR
01:31 39.1 °F 36.4 °F 30.27 in Calm     90% 0.00 in WeatherDisplay:10.37 W/m2 CLR
01:36 38.9 °F 36.2 °F 30.27 in Calm     90% 0.00 in WeatherDisplay:10.37 W/m2 CLR
01:37 38.9 °F 36.2 °F 30.27 in Calm     90% 0.00 in WeatherDisplay:10.37 W/m2 CLR
01:42 38.6 °F 35.9 °F 30.28 in Calm     90% 0.00 in WeatherDisplay:10.37 W/m2 CLR
01:47 38.6 °F 36.2 °F 30.28 in Calm     91% 0.00 in WeatherDisplay:10.37 W/m2 CLR
01:52 38.8 °F 36.7 °F 30.28 in Calm     92% 0.00 in WeatherDisplay:10.37 W/m2 CLR
01:57 38.8 °F 36.4 °F 30.28 in Calm     91% 0.00 in WeatherDisplay:10.37 W/m2 CLR
02:02 38.6 °F 36.2 °F 30.28 in Calm     91% 0.00 in WeatherDisplay:10.37 W/m2 CLR
02:07 38.4 °F 36.0 °F 30.28 in Calm     91% 0.00 in WeatherDisplay:10.37 W/m2 CLR
02:09 38.3 °F 35.9 °F 30.28 in Calm     91% 0.00 in WeatherDisplay:10.37 W/m2 CLR
02:14 38.2 °F 35.8 °F 30.28 in Calm     91% 0.00 in WeatherDisplay:10.37 W/m2 CLR
02:19 38.1 °F 36.0 °F 30.28 in Calm     92% 0.00 in WeatherDisplay:10.37 W/m2 CLR
02:24 37.9 °F 35.5 °F 30.27 in Calm     91% 0.00 in WeatherDisplay:10.37 W/m2 CLR
02:29 37.6 °F 35.2 °F 30.27 in Calm     91% 0.00 in WeatherDisplay:10.37 W/m2 CLR
02:34 37.5 °F 35.4 °F 30.27 in Calm     92% 0.00 in WeatherDisplay:10.37 W/m2 CLR
02:39 37.4 °F 35.3 °F 30.27 in Calm     92% 0.00 in WeatherDisplay:10.37 W/m2 CLR
02:44 37.3 °F 35.2 °F 30.27 in Calm     92% 0.00 in WeatherDisplay:10.37 W/m2 CLR
02:49 37.3 °F 35.5 °F 30.28 in Calm     93% 0.00 in WeatherDisplay:10.37 W/m2 CLR
02:54 37.2 °F 35.4 °F 30.27 in Calm     93% 0.00 in WeatherDisplay:10.37 W/m2 CLR
02:59 37.2 °F 35.4 °F 30.27 in NNE 2.3 mph 2.3 mph 93% 0.00 in WeatherDisplay:10.37 W/m2 CLR
03:04 37.1 °F 35.3 °F 30.27 in NNE 2.3 mph 2.3 mph 93% 0.00 in WeatherDisplay:10.37 W/m2 CLR
03:09 37.0 °F 35.2 °F 30.27 in NNE 2.3 mph 2.3 mph 93% 0.00 in WeatherDisplay:10.37 W/m2 CLR
03:14 36.8 °F 34.7 °F 30.27 in NNE 1.2 mph 1.2 mph 92% 0.00 in WeatherDisplay:10.37 W/m2 CLR
03:19 36.6 °F 34.5 °F 30.26 in NNE 2.0 mph 2.0 mph 92% 0.00 in WeatherDisplay:10.37 W/m2 CLR
03:24 36.6 °F 34.8 °F 30.26 in NNE 2.3 mph 2.3 mph 93% 0.00 in WeatherDisplay:10.37 W/m2 CLR
03:29 36.6 °F 35.0 °F 30.26 in NNE 1.2 mph 1.2 mph 94% 0.00 in WeatherDisplay:10.37 W/m2 CLR
03:34 36.5 °F 34.7 °F 30.26 in NNE 1.2 mph 1.2 mph 93% 0.00 in WeatherDisplay:10.37 W/m2 CLR
03:39 36.5 °F 34.9 °F 30.26 in NNE 2.3 mph 2.3 mph 94% 0.00 in WeatherDisplay:10.37 W/m2 CLR
03:44 36.5 °F 34.7 °F 30.26 in Calm     93% 0.00 in WeatherDisplay:10.37 W/m2 CLR
03:49 36.4 °F 34.6 °F 30.26 in NNE 1.2 mph 1.2 mph 93% 0.00 in WeatherDisplay:10.37 W/m2 CLR
03:54 36.3 °F 34.5 °F 30.26 in NNE 1.2 mph 1.2 mph 93% 0.00 in WeatherDisplay:10.37 W/m2 CLR
03:59 36.3 °F 34.7 °F 30.26 in Calm     94% 0.00 in WeatherDisplay:10.37 W/m2 CLR
04:04 36.2 °F 34.6 °F 30.26 in NNE 2.0 mph 2.0 mph 94% 0.00 in WeatherDisplay:10.37 W/m2 CLR
04:09 36.1 °F 34.5 °F 30.26 in NNE 1.2 mph 1.2 mph 94% 0.00 in WeatherDisplay:10.37 W/m2 CLR
04:14 35.9 °F 34.1 °F 30.27 in NNE 2.3 mph 2.3 mph 93% 0.00 in WeatherDisplay:10.37 W/m2 CLR
04:19 35.6 °F 33.8 °F 30.27 in Calm     93% 0.00 in WeatherDisplay:10.37 W/m2 CLR
04:24 35.5 °F 33.9 °F 30.27 in NNE 1.2 mph 1.2 mph 94% 0.00 in WeatherDisplay:10.37 W/m2 CLR
04:26 35.5 °F 33.9 °F 30.27 in Calm     94% 0.00 in WeatherDisplay:10.37 W/m2 CLR
04:31 35.4 °F 33.8 °F 30.27 in NNE 1.2 mph 1.2 mph 94% 0.00 in WeatherDisplay:10.37 W/m2 CLR
04:36 35.5 °F 34.2 °F 30.27 in NNE 1.2 mph 1.2 mph 95% 0.00 in WeatherDisplay:10.37 W/m2 CLR
04:41 35.7 °F 34.4 °F 30.27 in Calm     95% 0.00 in WeatherDisplay:10.37 W/m2 CLR
04:46 35.7 °F 34.4 °F 30.27 in Calm     95% 0.00 in WeatherDisplay:10.37 W/m2 CLR
04:51 35.7 °F 34.4 °F 30.27 in Calm     95% 0.00 in WeatherDisplay:10.37 W/m2 CLR
04:56 35.7 °F 34.4 °F 30.27 in Calm     95% 0.00 in WeatherDisplay:10.37 W/m2 CLR
05:01 35.6 °F 34.3 °F 30.27 in Calm     95% 0.00 in WeatherDisplay:10.37 W/m2 CLR
05:06 35.5 °F 34.2 °F 30.27 in Calm     95% 0.00 in WeatherDisplay:10.37 W/m2 CLR
05:11 35.4 °F 33.8 °F 30.27 in Calm     94% 0.00 in WeatherDisplay:10.37 W/m2 CLR
05:16 35.1 °F 33.5 °F 30.27 in Calm     94% 0.00 in WeatherDisplay:10.37 W/m2 CLR
05:21 34.9 °F 33.3 °F 30.26 in Calm     94% 0.00 in WeatherDisplay:10.37 W/m2 CLR
05:26 34.7 °F 33.2 °F 30.26 in Calm     94% 0.00 in WeatherDisplay:10.37 W/m2 CLR
05:31 34.6 °F 33.1 °F 30.26 in Calm     94% 0.00 in WeatherDisplay:10.37 W/m2 CLR
05:36 34.6 °F 33.3 °F 30.26 in Calm     95% 0.00 in WeatherDisplay:10.37 W/m2 CLR
05:41 34.7 °F 33.4 °F 30.26 in Calm     95% 0.00 in WeatherDisplay:10.37 W/m2 CLR
05:46 34.7 °F 33.4 °F 30.26 in Calm     95% 0.00 in WeatherDisplay:10.37 W/m2 CLR
05:51 34.9 °F 33.9 °F 30.26 in Calm     96% 0.00 in WeatherDisplay:10.37 W/m2 CLR
05:56 34.9 °F 33.9 °F 30.26 in Calm     96% 0.00 in WeatherDisplay:10.37 W/m2 CLR
06:01 34.7 °F 33.4 °F 30.26 in Calm     95% 0.00 in WeatherDisplay:10.37 W/m2 CLR
06:06 34.6 °F 33.3 °F 30.26 in Calm     95% 0.00 in WeatherDisplay:10.37 W/m2 CLR
06:11 34.4 °F 33.1 °F 30.26 in Calm     95% 0.01 in WeatherDisplay:10.37 W/m2 RA
06:16 34.3 °F 33.0 °F 30.26 in Calm     95% 0.01 in WeatherDisplay:10.37 W/m2 RA
06:21 34.2 °F 32.9 °F 30.26 in Calm     95% 0.01 in WeatherDisplay:10.37 W/m2
06:26 34.3 °F 33.0 °F 30.26 in Calm     95% 0.01 in WeatherDisplay:10.37 W/m2 CLR
06:31 34.4 °F 33.1 °F 30.26 in NNE 2.3 mph 2.3 mph 95% 0.01 in WeatherDisplay:10.37 W/m2 CLR
06:36 34.5 °F 33.5 °F 30.26 in NNE 2.3 mph 2.3 mph 96% 0.01 in WeatherDisplay:10.37 W/m2 CLR
06:41 34.5 °F 33.2 °F 30.26 in NNE 1.2 mph 1.2 mph 95% 0.01 in WeatherDisplay:10.37 W/m2 CLR
06:46 34.6 °F 33.6 °F 30.26 in NNE 1.2 mph 1.2 mph 96% 0.01 in WeatherDisplay:10.37 W/m2 CLR
06:51 35.0 °F 34.0 °F 30.26 in NNE 1.2 mph 1.2 mph 96% 0.01 in WeatherDisplay:10.37 W/m2 CLR
06:56 35.6 °F 34.6 °F 30.26 in NNE 2.3 mph 2.3 mph 96% 0.01 in WeatherDisplay:10.37 W/m2 CLR
07:01 36.1 °F 35.1 °F 30.27 in NNE 1.2 mph 1.2 mph 96% 0.01 in WeatherDisplay:10.37 W/m2 CLR
07:06 36.6 °F 35.6 °F 30.27 in Calm     96% 0.01 in WeatherDisplay:10.37 W/m2 CLR
07:11 37.1 °F 36.1 °F 30.27 in NNE 1.0 mph 1.0 mph 96% 0.00 in WeatherDisplay:10.37 W/m2 CLR
07:16 37.7 °F 36.4 °F 30.27 in NNE 2.3 mph 2.3 mph 95% 0.00 in WeatherDisplay:10.37 W/m2 CLR
07:21 38.3 °F 37.0 °F 30.27 in NNE 2.3 mph 2.3 mph 95% 0.00 in WeatherDisplay:10.37 W/m2 CLR
07:26 38.9 °F 37.3 °F 30.28 in Calm     94% 0.00 in WeatherDisplay:10.37 W/m2 CLR
07:31 39.6 °F 38.0 °F 30.28 in Calm     94% 0.00 in WeatherDisplay:10.37 W/m2 CLR
07:36 40.3 °F 38.4 °F 30.28 in Calm     93% 0.00 in WeatherDisplay:10.37 W/m2 CLR
07:41 41.1 °F 39.0 °F 30.27 in NNE 2.3 mph 2.3 mph 92% 0.00 in WeatherDisplay:10.37 W/m2 CLR
07:46 41.9 °F 39.5 °F 30.27 in NNE 2.3 mph 2.3 mph 91% 0.00 in WeatherDisplay:10.37 W/m2 CLR
07:51 42.7 °F 40.3 °F 30.27 in NNE 1.2 mph   91% 0.00 in WeatherDisplay:10.37 W/m2 CLR
07:56 43.6 °F 40.0 °F 30.28 in NNE 2.3 mph 2.3 mph 87% 0.00 in WeatherDisplay:10.37 W/m2 CLR
08:01 44.5 °F 40.9 °F 30.28 in NNE 1.2 mph 1.2 mph 87% 0.00 in WeatherDisplay:10.37 W/m2 CLR
08:06 45.7 °F 41.4 °F 30.28 in NNE 1.2 mph   85% 0.00 in WeatherDisplay:10.37 W/m2 CLR
08:11 46.6 °F 42.0 °F 30.28 in Calm     84% 0.00 in WeatherDisplay:10.37 W/m2 CLR
08:16 47.8 °F 42.3 °F 30.28 in Calm     81% 0.00 in WeatherDisplay:10.37 W/m2 CLR
08:21 48.4 °F 40.1 °F 30.28 in Calm     73% 0.00 in WeatherDisplay:10.37 W/m2 CLR
08:26 48.9 °F 40.3 °F 30.27 in South 3.5 mph 3.5 mph 72% 0.00 in WeatherDisplay:10.37 W/m2 CLR
08:31 49.1 °F 40.5 °F 30.27 in Calm     72% 0.00 in WeatherDisplay:10.37 W/m2 CLR
08:36 49.5 °F 41.2 °F 30.27 in SSW 2.0 mph 2.0 mph 73% 0.00 in WeatherDisplay:10.37 W/m2 CLR
08:41 49.7 °F 40.7 °F 30.27 in SSW 1.2 mph 1.2 mph 71% 0.00 in WeatherDisplay:10.37 W/m2 CLR
08:46 49.7 °F 40.3 °F 30.27 in SSW 2.0 mph 2.0 mph 70% 0.00 in WeatherDisplay:10.37 W/m2 CLR
08:51 49.9 °F 40.1 °F 30.27 in SSW 2.3 mph 2.3 mph 69% 0.00 in WeatherDisplay:10.37 W/m2 CLR
08:56 50.0 °F 40.2 °F 30.27 in WSW 3.5 mph 3.5 mph 69% 0.00 in WeatherDisplay:10.37 W/m2 CLR
09:01 50.4 °F 39.9 °F 30.27 in SSW 4.6 mph 4.6 mph 67% 0.00 in WeatherDisplay:10.37 W/m2 CLR
09:06 50.5 °F 39.9 °F 30.27 in SSW 3.5 mph 3.5 mph 67% 0.00 in WeatherDisplay:10.37 W/m2 CLR
09:11 50.8 °F 40.2 °F 30.27 in South 3.5 mph 3.5 mph 67% 0.00 in WeatherDisplay:10.37 W/m2 CLR
09:12 50.9 °F 40.3 °F 30.27 in South 3.5 mph 3.5 mph 67% 0.00 in WeatherDisplay:10.37 W/m2 CLR
09:17 51.5 °F 41.7 °F 30.27 in SSW 1.2 mph 1.2 mph 69% 0.00 in WeatherDisplay:10.37 W/m2 CLR
09:22 51.7 °F 40.7 °F 30.27 in SW 4.0 mph 4.0 mph 66% 0.00 in WeatherDisplay:10.37 W/m2 CLR
09:27 51.4 °F 41.2 °F 30.27 in SSW 3.5 mph 3.5 mph 68% 0.00 in WeatherDisplay:10.37 W/m2 CLR
09:32 51.2 °F 41.0 °F 30.27 in WSW 3.0 mph 3.0 mph 68% 0.00 in WeatherDisplay:10.37 W/m2 CLR
09:37 50.9 °F 40.7 °F 30.27 in SW 3.5 mph 3.5 mph 68% 0.00 in WeatherDisplay:10.37 W/m2 CLR
09:42 50.9 °F 41.1 °F 30.27 in SW 2.3 mph 2.3 mph 69% 0.00 in WeatherDisplay:10.37 W/m2 CLR
09:47 51.6 °F 42.1 °F 30.27 in NW 1.2 mph 1.2 mph 70% 0.00 in WeatherDisplay:10.37 W/m2 CLR
09:52 52.3 °F 41.7 °F 30.26 in SSW 2.3 mph 2.3 mph 67% 0.00 in WeatherDisplay:10.37 W/m2 CLR
09:57 53.3 °F 44.1 °F 30.26 in Calm     71% 0.00 in WeatherDisplay:10.37 W/m2 CLR
10:02 54.1 °F 41.4 °F 30.26 in WSW 3.5 mph 3.5 mph 62% 0.00 in WeatherDisplay:10.37 W/m2 CLR
10:07 54.7 °F 41.5 °F 30.26 in SSW 4.0 mph 4.0 mph 61% 0.00 in WeatherDisplay:10.37 W/m2 CLR
10:12 55.0 °F 40.0 °F 30.26 in WSW 3.5 mph 3.5 mph 57% 0.00 in WeatherDisplay:10.37 W/m2 CLR
10:17 55.5 °F 40.0 °F 30.26 in WSW 3.5 mph 3.5 mph 56% 0.00 in WeatherDisplay:10.37 W/m2 CLR
10:22 55.6 °F 40.6 °F 30.26 in SSE 3.5 mph 3.5 mph 57% 0.00 in WeatherDisplay:10.37 W/m2 CLR
10:27 55.8 °F 39.9 °F 30.26 in SW 5.0 mph 5.0 mph 55% 0.00 in WeatherDisplay:10.37 W/m2 CLR
10:32 55.7 °F 39.8 °F 30.26 in West 3.5 mph 3.5 mph 55% 0.00 in WeatherDisplay:10.37 W/m2 CLR
10:37 55.9 °F 41.3 °F 30.26 in WSW 1.2 mph 1.2 mph 58% 0.00 in WeatherDisplay:10.37 W/m2 CLR
10:42 56.6 °F 42.9 °F 30.25 in NNE 2.3 mph 2.3 mph 60% 0.00 in WeatherDisplay:10.37 W/m2 CLR
10:47 57.3 °F 42.2 °F 30.25 in SSW 3.5 mph 3.5 mph 57% 0.00 in WeatherDisplay:10.37 W/m2 CLR
10:52 57.6 °F 41.1 °F 30.25 in SSW 3.5 mph 3.5 mph 54% 0.00 in WeatherDisplay:10.37 W/m2 CLR
10:57 57.7 °F 41.6 °F 30.25 in West 3.5 mph 3.5 mph 55% 0.00 in WeatherDisplay:10.37 W/m2 CLR
11:02 57.4 °F 40.9 °F 30.25 in SSW 3.5 mph 3.5 mph 54% 0.00 in WeatherDisplay:10.37 W/m2 CLR
11:07 57.6 °F 42.0 °F 30.25 in SSW 3.0 mph 3.0 mph 56% 0.00 in WeatherDisplay:10.37 W/m2 CLR
11:12 58.0 °F 41.0 °F 30.25 in SSW 2.3 mph 2.3 mph 53% 0.00 in WeatherDisplay:10.37 W/m2 CLR
11:17 58.5 °F 41.9 °F 30.25 in ENE 4.0 mph 4.0 mph 54% 0.00 in WeatherDisplay:10.37 W/m2 CLR
11:22 59.0 °F 41.4 °F 30.25 in NE 3.5 mph 3.5 mph 52% 0.00 in WeatherDisplay:10.37 W/m2 CLR
11:27 59.3 °F 42.2 °F 30.24 in NNE 2.3 mph 2.3 mph 53% 0.00 in WeatherDisplay:10.37 W/m2 CLR
11:32 59.6 °F 39.9 °F 30.24 in SW 3.5 mph 3.5 mph 48% 0.00 in WeatherDisplay:10.37 W/m2 CLR
11:37 59.6 °F 43.4 °F 30.24 in WNW 2.3 mph 2.3 mph 55% 0.00 in WeatherDisplay:10.37 W/m2 CLR
11:42 60.5 °F 40.7 °F 30.24 in SSW 2.3 mph 2.3 mph 48% 0.00 in WeatherDisplay:10.37 W/m2 CLR
11:47 61.0 °F 41.2 °F 30.24 in ENE 4.6 mph 4.6 mph 48% 0.00 in WeatherDisplay:10.37 W/m2 CLR
11:52 61.0 °F 43.2 °F 30.24 in NW 3.5 mph 3.5 mph 52% 0.00 in WeatherDisplay:10.37 W/m2 CLR
11:57 61.0 °F 43.2 °F 30.23 in NW 3.0 mph 3.0 mph 52% 0.00 in WeatherDisplay:10.37 W/m2 CLR
12:02 61.2 °F 42.4 °F 30.23 in WNW 5.8 mph 5.8 mph 50% 0.00 in WeatherDisplay:10.37 W/m2 CLR
12:07 60.8 °F 44.5 °F 30.23 in West 3.5 mph 3.5 mph 55% 0.00 in WeatherDisplay:10.37 W/m2 CLR
12:12 60.9 °F 41.1 °F 30.23 in SW 3.5 mph 3.5 mph 48% 0.00 in WeatherDisplay:10.37 W/m2 CLR
12:17 61.6 °F 44.3 °F 30.23 in NNW 8.1 mph 8.1 mph 53% 0.00 in WeatherDisplay:10.37 W/m2 CLR
12:22 61.5 °F 42.7 °F 30.23 in WNW 2.3 mph 2.3 mph 50% 0.00 in WeatherDisplay:10.37 W/m2 CLR
12:27 61.6 °F 41.2 °F 30.23 in WNW 3.5 mph 3.5 mph 47% 0.00 in WeatherDisplay:10.37 W/m2 CLR
12:32 61.9 °F 41.4 °F 30.22 in WNW 3.5 mph 3.5 mph 47% 0.00 in WeatherDisplay:10.37 W/m2 CLR
12:37 62.2 °F 40.6 °F 30.22 in South 1.2 mph 1.2 mph 45% 0.00 in WeatherDisplay:10.37 W/m2 CLR
12:42 62.4 °F 40.8 °F 30.22 in SW 3.5 mph 3.5 mph 45% 0.00 in WeatherDisplay:10.37 W/m2 CLR
12:47 62.3 °F 42.3 °F 30.22 in SW 2.3 mph 2.3 mph 48% 0.00 in WeatherDisplay:10.37 W/m2 CLR
12:52 62.6 °F 42.1 °F 30.22 in West 3.5 mph 3.5 mph 47% 0.00 in WeatherDisplay:10.37 W/m2 CLR
12:57 62.7 °F 43.8 °F 30.22 in SSW 5.0 mph 5.0 mph 50% 0.00 in WeatherDisplay:10.37 W/m2 CLR
13:02 62.7 °F 39.9 °F 30.22 in SW 2.3 mph 2.3 mph 43% 0.00 in WeatherDisplay:10.37 W/m2 CLR
13:07 62.9 °F 40.0 °F 30.22 in SSE 3.0 mph 3.0 mph 43% 0.00 in WeatherDisplay:10.37 W/m2 CLR
13:12 63.5 °F 40.6 °F 30.21 in SSW 3.5 mph 3.5 mph 43% 0.00 in WeatherDisplay:10.37 W/m2 CLR
13:17 63.7 °F 38.9 °F 30.21 in SSW 3.5 mph 3.5 mph 40% 0.00 in WeatherDisplay:10.37 W/m2 CLR
13:22 63.7 °F 39.5 °F 30.22 in WSW 5.8 mph 5.8 mph 41% 0.00 in WeatherDisplay:10.37 W/m2 CLR
13:27 63.4 °F 39.3 °F 30.22 in South 6.9 mph 6.9 mph 41% 0.00 in WeatherDisplay:10.37 W/m2 CLR
13:32 63.2 °F 40.9 °F 30.22 in SW 2.3 mph 2.3 mph 44% 0.00 in WeatherDisplay:10.37 W/m2 CLR
13:37 63.4 °F 41.1 °F 30.21 in NW 2.3 mph 2.3 mph 44% 0.00 in WeatherDisplay:10.37 W/m2 CLR
13:42 63.5 °F 40.0 °F 30.21 in WNW 3.5 mph 3.5 mph 42% 0.00 in WeatherDisplay:10.37 W/m2 CLR
13:47 63.5 °F 38.7 °F 30.21 in NNW 3.5 mph 3.5 mph 40% 0.00 in WeatherDisplay:10.37 W/m2 CLR
13:52 63.4 °F 38.6 °F 30.21 in South 3.5 mph 3.5 mph 40% 0.00 in WeatherDisplay:10.37 W/m2 CLR
13:57 63.1 °F 40.2 °F 30.20 in NW 3.5 mph 3.5 mph 43% 0.00 in WeatherDisplay:10.37 W/m2 CLR
14:02 63.0 °F 39.5 °F 30.20 in WSW 2.3 mph 2.3 mph 42% 0.00 in WeatherDisplay:10.37 W/m2 CLR
14:07 62.7 °F 40.5 °F 30.20 in WNW 2.3 mph 2.3 mph 44% 0.00 in WeatherDisplay:10.37 W/m2 CLR
14:12 62.3 °F 40.7 °F 30.20 in NW 2.3 mph 2.3 mph 45% 0.00 in WeatherDisplay:10.37 W/m2 CLR
14:17 62.2 °F 40.6 °F 30.20 in NW 1.2 mph 1.2 mph 45% 0.00 in WeatherDisplay:10.37 W/m2 CLR
14:22 62.3 °F 38.9 °F 30.20 in SSE 5.0 mph 5.0 mph 42% 0.00 in WeatherDisplay:10.37 W/m2 CLR
14:27 62.4 °F 39.6 °F 30.20 in SW 3.5 mph 3.5 mph 43% 0.00 in WeatherDisplay:10.37 W/m2 CLR
14:32 62.7 °F 41.6 °F 30.20 in NW 4.6 mph 4.6 mph 46% 0.00 in WeatherDisplay:10.37 W/m2 CLR
14:37 62.9 °F 41.2 °F 30.20 in WSW 3.5 mph 3.5 mph 45% 0.00 in WeatherDisplay:10.37 W/m2 CLR
14:42 63.2 °F 43.7 °F 30.20 in West 2.3 mph 2.3 mph 49% 0.00 in WeatherDisplay:10.37 W/m2 CLR
14:47 63.5 °F 40.6 °F 30.20 in NNE 3.5 mph 3.5 mph 43% 0.00 in WeatherDisplay:10.37 W/m2 CLR
14:52 63.9 °F 41.5 °F 30.20 in WNW 3.5 mph 3.5 mph 44% 0.00 in WeatherDisplay:10.37 W/m2 CLR
14:57 63.6 °F 38.8 °F 30.19 in NW 3.5 mph 3.5 mph 40% 0.00 in WeatherDisplay:10.37 W/m2 CLR
15:02 63.6 °F 39.5 °F 30.19 in NW 1.2 mph 1.2 mph 41% 0.00 in WeatherDisplay:10.37 W/m2 CLR
15:07 63.8 °F 43.2 °F 30.19 in NNE 5.0 mph 5.0 mph 47% 0.00 in WeatherDisplay:10.37 W/m2 CLR
15:12 64.1 °F 42.3 °F 30.19 in NW 2.3 mph 2.3 mph 45% 0.00 in WeatherDisplay:10.37 W/m2 CLR
15:17 64.4 °F 42.6 °F 30.19 in NNE 3.5 mph 3.5 mph 45% 0.00 in WeatherDisplay:10.37 W/m2 CLR
15:22 64.7 °F 39.8 °F 30.19 in NNE 2.3 mph 2.3 mph 40% 0.00 in WeatherDisplay:10.37 W/m2 CLR
15:27 65.3 °F 43.4 °F 30.18 in NNE 2.3 mph 2.3 mph 45% 0.00 in WeatherDisplay:10.37 W/m2 CLR
15:32 65.9 °F 43.4 °F 30.18 in NE 2.3 mph 2.3 mph 44% 0.00 in WeatherDisplay:10.37 W/m2 CLR
15:37 66.2 °F 39.8 °F 30.18 in WNW 1.2 mph   38% 0.00 in WeatherDisplay:10.37 W/m2 CLR
15:42 66.4 °F 41.3 °F 30.18 in NW 3.0 mph 3.0 mph 40% 0.00 in WeatherDisplay:10.37 W/m2 CLR
15:47 66.7 °F 41.6 °F 30.18 in NNW 4.0 mph 4.0 mph 40% 0.00 in WeatherDisplay:10.37 W/m2 CLR
15:52 66.9 °F 42.4 °F 30.18 in WSW 4.6 mph 4.6 mph 41% 0.00 in WeatherDisplay:10.37 W/m2 CLR
15:57 66.3 °F 38.5 °F 30.18 in SSW 4.6 mph 4.6 mph 36% 0.00 in WeatherDisplay:10.37 W/m2 CLR
16:02 65.9 °F 38.9 °F 30.17 in SW 3.5 mph 3.5 mph 37% 0.00 in WeatherDisplay:10.37 W/m2 CLR
16:07 65.4 °F 37.7 °F 30.17 in SSW 4.6 mph 4.6 mph 36% 0.00 in WeatherDisplay:10.37 W/m2 CLR
16:12 65.0 °F 41.9 °F 30.17 in South 2.3 mph 2.3 mph 43% 0.00 in WeatherDisplay:10.37 W/m2 CLR
16:17 65.0 °F 40.1 °F 30.17 in SSW 3.5 mph 3.5 mph 40% 0.00 in WeatherDisplay:10.37 W/m2 CLR
16:22 64.7 °F 39.2 °F 30.17 in SW 4.6 mph 4.6 mph 39% 0.00 in WeatherDisplay:10.37 W/m2 CLR
16:27 64.4 °F 41.4 °F 30.17 in SE 1.2 mph 1.2 mph 43% 0.00 in WeatherDisplay:10.37 W/m2 CLR
16:32 64.4 °F 39.5 °F 30.17 in South 3.5 mph 3.5 mph 40% 0.00 in WeatherDisplay:10.37 W/m2 CLR
16:37 64.6 °F 42.2 °F 30.17 in SSW 2.3 mph   44% 0.00 in WeatherDisplay:10.37 W/m2 CLR
16:42 64.7 °F 41.1 °F 30.17 in South 3.5 mph 3.5 mph 42% 0.00 in WeatherDisplay:10.37 W/m2 CLR
16:47 64.5 °F 39.6 °F 30.17 in SE 2.3 mph 2.3 mph 40% 0.00 in WeatherDisplay:10.37 W/m2 CLR
16:52 64.4 °F 40.2 °F 30.17 in SSE 3.5 mph 3.5 mph 41% 0.00 in WeatherDisplay:10.37 W/m2 CLR
16:57 64.3 °F 40.1 °F 30.17 in South 2.3 mph 2.3 mph 41% 0.00 in WeatherDisplay:10.37 W/m2 CLR
16:59 64.3 °F 42.5 °F 30.16 in South 3.5 mph 3.5 mph 45% 0.00 in WeatherDisplay:10.37 W/m2 CLR
17:04 64.4 °F 42.6 °F 30.16 in South 1.0 mph   45% 0.00 in WeatherDisplay:10.37 W/m2 CLR
17:09 64.7 °F 41.1 °F 30.16 in South 2.3 mph 2.3 mph 42% 0.00 in WeatherDisplay:10.37 W/m2 CLR
17:14 65.0 °F 40.7 °F 30.16 in South 1.2 mph 1.2 mph 41% 0.00 in WeatherDisplay:10.37 W/m2 CLR
VanCam Weather
Compliments of Weather Underground - 4 mb